Pays
Station

 

Conditions  météo  pour  Buckland, Buckland Airport  -  Etats-Unis    Etats-Unis

  
8 °C
    
 
 

METAR pour Buckland, Buckland Airport :

PABL 230356Z AUTO 05006KT 10SM CLR 08/01 A2952 RMK AO2 SLP999 T00830011

 

Voici le bulletin pour Buckland, Buckland Airport - Etats-Unis.
 
Le bulletin a été fait il y a 43 minutes, à 03:56 UTC .
Le vent soufflait à la vitesse de 3.1 mètres par seconde de Nord-est (050°).
 
La température était de 8 °C, avec un point de rosée à 1 °C.
La pression atmosphérique était de 1000 hPa.
L'humidité relative était de 61.2%.
 
Le ciel était clair.
 
La visibilité globale était de 16.1 kilomètres.
 

 
 
 

Pays :   A   B   C   D   E   F   G   H   I   J   K   L   M   N   O   P   Q   R   S   T   U   V   W   Y   Z

 

Partenaires :  Info Météo avec Met'info
Météo Marine avec MeteoMarine.net
Infos Site  |  Infos Légales  |  Crédits  |  Confidentialité
Contactez-nous  |  Ajouter aux favoris
© 2013-2018 METAR - Tous droits réservés